Latest Coastal Weather Observations for Norfolk Island

IDN60701

Issued at 11:42 pm EST Wednesday 28 September 2016 (issued every 10 minutes, with the page automatically refreshed every 10 minutes)

About coastal observations | Map of coastal stations | Coastal observations for NSW | Marine services | Other Formats
Station Details ID: 200288 Name: NORFOLK ISLAND AERO Lat: -29.04 Lon: 167.94 Height: 111.73 m
Data from the previous 72 hours. | See also: Recent months at Norfolk Island
Date/Time
EST
Temp
°C
Wind Pressure Rain since
9am
mm
Weather Cloud Vis
km
Sea
Height
m
Swell
Dir  Spd
kts
Gust
kts
hPa Trend Height
m
Period
s
Dir
28/11:30pm 16.1 SW 20 30 1005.8 - 6.6 - Partly cloudy 10 - - - -
28/11:06pm 16.5 SW 19 32 1005.6 - 6.6 - Partly cloudy 10 - - - -
28/11:00pm 16.6 SW 19 26 1005.5 - 6.6 - - 10 - - - -
28/10:30pm 16.8 SW 19 27 1005.6 - 6.6 - Partly cloudy 10 - - - -
28/10:28pm 16.9 SW 19 29 1005.6 - 6.6 - Partly cloudy 10 - - - -
28/10:00pm 16.9 SW 18 27 1005.6 - 6.6 - Partly cloudy 10 - - - -
28/09:44pm 16.8 SW 19 29 1005.6 - 6.6 - Partly cloudy 10 - - - -
28/09:30pm 17.0 SW 19 28 1005.4 - 6.6 - Partly cloudy 10 - - - -
28/09:00pm 17.0 WSW 17 28 1005.4 - 6.6 - Partly cloudy 10 - - - -
28/08:55pm 17.1 SW 17 28 1005.4 - 6.6 - Partly cloudy 10 - - - -
28/08:30pm 16.9 WSW 18 26 1005.5 - 6.6 - - 10 - - - -
28/08:00pm 16.7 W 13 19 1005.9 - 6.4 Rain Cloudy 10 - - - -
28/07:30pm 16.3 W 11 16 1005.6 - 6.4 - Partly cloudy 10 - - - -
28/07:00pm 15.9 W 9 14 1005.6 - 6.4 - Partly cloudy 10 - - - -
28/06:30pm 15.1 NW 6 8 1005.4 - 6.0 - - 10 - - - -
28/06:00pm 14.4 NW 5 8 1005.3 - 6.0 - - 10 - - - -
28/05:30pm 14.6 WNW 5 7 1005.3 - 6.0 - Partly cloudy 10 - - - -
28/05:00pm 14.6 NW 5 7 1005.4 - 6.0 Showers Mostly cloudy 10 - - - -
28/04:30pm 14.6 WSW 7 9 1005.9 - 5.8 - Partly cloudy 8 - - - -
28/04:21pm 14.5 SW 7 11 1005.9 - 5.4 - Partly cloudy 9 - - - -
28/04:00pm 14.5 SW 9 14 1006.1 - 4.8 - Partly cloudy 6 - - - -
28/03:58pm 14.4 SW 9 14 1006.0 - 4.6 - Partly cloudy 6 - - - -
28/03:42pm 14.5 SW 7 11 1005.9 - 4.0 - Partly cloudy 10 - - - -
28/03:30pm 14.3 WSW 9 13 1005.6 - 4.0 Showers Partly cloudy 10 - - - -
28/03:03pm 14.1 SW 19 29 1005.9 - 2.2 Showers Mostly clear 6 - - - -
28/03:00pm 14.1 SW 20 29 1005.9 - 2.0 - Mostly clear 6 - - - -
28/02:48pm 14.8 SW 21 31 1005.4 - 0.2 - Partly cloudy 1 - - - -
28/02:41pm 16.2 WSW 18 26 1005.1 - 0.2 - Partly cloudy 10 - - - -
28/02:30pm 18.9 W 15 20 1004.8 - 0.2 - Partly cloudy 10 - - - -
28/02:00pm 18.6 W 15 21 1005.1 - 0.2 - Cloudy 10 - - - -
28/01:30pm 18.5 W 11 16 1005.3 - 0.2 - Partly cloudy 10 - - - -
28/01:00pm 17.5 SW 5 7 1005.9 - 0.2 - Mostly clear 10 - - - -
28/12:30pm 14.9 SSW 11 18 1006.6 - 0.2 - Mostly clear 10 - - - -
28/12:12pm 15.4 WNW 13 30 1006.4 - 0.0 Thunderstorm Mostly clear 10 - - - -
28/12:10pm 16.2 WNW 11 27 1006.4 - 0.0 Thunderstorm Mostly clear 10 - - - -
28/12:00pm 18.0 WNW 7 14 1006.3 - 0.0 - Partly cloudy 2 - - - -
28/11:53am 17.9 W 9 14 1006.5 - 0.0 Thunderstorm Partly cloudy 10 - - - -
28/11:30am 19.1 W 11 17 1006.8 - 0.0 - Partly cloudy 10 - - - -
28/11:00am 20.0 W 12 20 1007.3 - 0.0 - Cloudy 10 - - - -
28/10:30am 19.6 W 14 19 1007.7 - 0.0 - Partly cloudy 10 - - - -
28/10:00am 20.0 W 14 20 1007.9 - 0.0 - Partly cloudy 10 - - - -
28/09:30am 19.4 W 15 22 1008.0 - 0.0 - Mostly cloudy 10 - - - -
28/09:00am 19.4 W 12 16 1008.2 - 0.0 - Partly cloudy 10 - - - -
28/08:30am 19.5 W 13 17 1008.3 - 0.0 - Partly cloudy 10 - - - -
28/08:00am 19.3 W 12 17 1008.4 - 5.4 - Mostly clear 10 - - - -
28/07:30am 18.8 W 11 16 1008.5 - 5.4 - Mostly clear 10 - - - -
28/07:00am 18.5 W 11 16 1008.5 - 5.4 - Mostly clear 10 - - - -
28/06:30am 17.6 WSW 12 18 1008.4 - 5.4 - - 10 - - - -
28/06:00am 16.2 W 9 12 1008.1 - 5.4 - Partly cloudy 10 - - - -
28/05:30am 16.3 WSW 15 24 1007.9 - 5.4 - Partly cloudy 10 - - - -
28/05:00am 17.0 WSW 11 15 1007.6 - 5.0 - Mostly cloudy 10 - - - -
28/04:30am 16.2 WSW 7 12 1007.3 - 5.0 - Partly cloudy 10 - - - -
28/04:00am 15.5 WSW 7 9 1007.3 - 5.0 - Partly cloudy 10 - - - -
28/03:30am 15.2 SW 8 11 1007.1 - 5.0 - Partly cloudy 10 - - - -
28/03:00am 15.1 SSW 10 15 1007.1 - 5.0 - Partly cloudy 10 - - - -
28/02:59am 15.0 SSW 10 15 1007.1 - 5.0 - Partly cloudy 10 - - - -
28/02:39am 15.0 SW 16 28 1006.9 - 3.6 - Partly cloudy 6 - - - -
28/02:38am 15.3 SW 15 28 1006.9 - 3.0 - Partly cloudy 8 - - - -
28/02:30am 17.5 SW 12 19 1006.5 - 2.2 - Partly cloudy 10 - - - -
28/02:00am 17.5 WSW 12 18 1006.5 - 2.2 - Partly cloudy 10 - - - -
28/01:30am 17.3 SW 14 18 1006.6 - 2.2 - Partly cloudy 10 - - - -
28/01:00am 17.1 SW 13 20 1006.6 - 2.2 - Partly cloudy 10 - - - -
28/12:30am 16.9 WSW 13 19 1006.6 - 2.2 - Partly cloudy 10 - - - -
28/12:00am 16.5 SW 15 24 1006.9 - 2.0 - Partly cloudy 10 - - - -
 
Date/Time
EST
Temp
°C
Wind Pressure Rain since
9am
mm
Weather Cloud Vis
km
Sea
Height
m
Swell
Dir  Spd
kts
Gust
kts
hPa Trend Height
m
Period
s
Dir
27/11:30pm 17.7 SW 13 18 1007.2 - 2.0 - Partly cloudy 10 - - - -
27/11:00pm 17.6 WSW 13 17 1007.4 - 2.0 - Mostly clear 10 - - - -
27/10:30pm 17.6 WSW 15 22 1007.6 - 2.0 - Partly cloudy 10 - - - -
27/10:00pm 17.9 SW 12 18 1007.7 - 2.0 - Partly cloudy 10 - - - -
27/09:30pm 17.6 SW 12 18 1007.8 - 2.0 - Partly cloudy 10 - - - -
27/09:00pm 17.6 SW 13 20 1007.9 - 2.0 - Partly cloudy 10 - - - -
27/08:30pm 17.8 SW 13 18 1008.1 - 2.0 - Partly cloudy 10 - - - -
27/08:00pm 17.8 SW 14 20 1007.9 - 2.0 - Partly cloudy 10 - - - -
27/07:30pm 17.9 SW 15 19 1008.0 - 2.0 - Partly cloudy 10 - - - -
27/07:00pm 17.8 SW 13 18 1007.8 - 2.0 - Partly cloudy 10 - - - -
27/06:30pm 17.7 SW 13 18 1007.6 - 2.0 - Partly cloudy 10 - - - -
27/06:00pm 17.5 SW 13 18 1007.3 - 2.0 - Partly cloudy 10 - - - -
27/05:30pm 17.8 WSW 14 19 1007.2 - 2.0 - Partly cloudy 10 - - - -
27/05:00pm 18.0 SW 14 20 1006.8 - 2.0 - Cloudy 10 - - - -
27/04:30pm 18.4 SW 16 22 1006.4 - 2.0 - Partly cloudy 10 - - - -
27/04:00pm 18.3 SW 13 19 1006.3 - 2.0 - Partly cloudy 10 - - - -
27/03:30pm 18.6 SW 14 20 1006.2 - 2.0 - Partly cloudy 10 - - - -
27/03:00pm 18.3 SW 15 20 1006.0 - 2.0 - Mostly clear 10 - - - -
27/02:30pm 19.4 SW 14 21 1005.8 - 1.8 - Mostly clear 10 - - - -
27/02:00pm 18.9 SW 14 19 1005.8 - 1.8 - Cloudy 10 - - - -
27/01:30pm 18.5 SW 15 19 1005.6 - 1.8 - Mostly clear 10 - - - -
27/01:00pm 19.0 WSW 13 18 1005.6 - 1.8 - Mostly clear 10 - - - -
27/12:30pm 18.4 WSW 12 17 1005.9 - 1.8 - Mostly clear 10 - - - -
27/12:00pm 19.3 WSW 12 17 1006.3 - 1.8 - Partly cloudy 10 - - - -
27/11:30am 19.0 WSW 8 13 1006.5 - 1.8 Showers Mostly clear 10 - - - -
27/11:00am 19.4 SW 13 16 1006.8 - 1.0 Rain Mostly cloudy 10 - - - -
27/10:30am 18.2 SW 7 11 1007.0 - 1.0 Showers Partly cloudy 10 - - - -
27/10:00am 19.4 SW 10 15 1007.2 - 0.0 - Partly cloudy 10 - - - -
27/09:30am 19.0 SW 11 15 1007.3 - 0.0 - Mostly clear 10 - - - -
27/09:00am 19.0 SSW 11 17 1007.3 - 0.0 - Mostly clear 10 - - - -
27/08:30am 19.1 S 8 12 1007.3 - 0.0 - Mostly clear 10 - - - -
27/08:00am 18.3 SSE 9 13 1007.3 - 3.8 Rain Cloudy 10 - - - -
27/07:56am 18.2 S 9 14 1007.3 - 3.8 - Partly cloudy 10 - - - -
27/07:30am 17.5 S 7 10 1007.2 - 3.8 Showers Mostly clear 10 - - - -
27/07:00am 18.2 SSW 9 15 1006.7 - 3.6 - Mostly clear 10 - - - -
27/06:30am 18.1 S 9 13 1006.3 - 3.6 - Partly cloudy 10 - - - -
27/06:00am 18.1 SSW 8 12 1005.9 - 3.6 - Partly cloudy 10 - - - -
27/05:30am 17.6 SSW 10 16 1005.6 - 3.6 - Partly cloudy 10 - - - -
27/05:00am 17.5 SSW 12 17 1005.0 - 3.6 - Cloudy 10 - - - -
27/04:30am 17.4 SW 12 16 1004.9 - 3.6 - Partly cloudy 10 - - - -
27/04:00am 16.9 SW 15 19 1004.6 - 3.6 - Partly cloudy 10 - - - -
27/03:30am 17.0 SSW 13 18 1004.2 - 3.6 - Partly cloudy 10 - - - -
27/03:00am 17.1 SW 14 20 1003.8 - 3.6 - Partly cloudy 10 - - - -
27/02:30am 16.4 SW 9 13 1003.6 - 3.6 - Partly cloudy 10 - - - -
27/02:00am 17.1 SW 14 19 1003.2 - 3.6 - Cloudy 10 - - - -
27/01:30am 17.1 SW 14 19 1002.9 - 3.6 - Partly cloudy 10 - - - -
27/01:00am 17.3 SW 13 18 1003.0 - 3.6 - Partly cloudy 10 - - - -
27/12:30am 16.8 SW 11 16 1003.3 - 3.6 - - 10 - - - -
27/12:00am 16.9 SW 13 18 1003.6 - 3.6 - Partly cloudy 10 - - - -
 
Date/Time
EST
Temp
°C
Wind Pressure Rain since
9am
mm
Weather Cloud Vis
km
Sea
Height
m
Swell
Dir  Spd
kts
Gust
kts
hPa Trend Height
m
Period
s
Dir
26/11:30pm 16.4 SW 16 22 1003.9 - 3.6 - Partly cloudy 10 - - - -
26/11:00pm 17.6 WSW 16 21 1003.9 - 3.6 Rain Cloudy 10 - - - -
26/10:30pm 16.7 SW 13 20 1004.2 - 3.6 - Partly cloudy 10 - - - -
26/10:00pm 17.6 SW 14 18 1004.1 - 3.4 - Partly cloudy 10 - - - -
26/09:30pm 17.8 WSW 12 19 1004.0 - 3.2 - Partly cloudy 10 - - - -
26/09:00pm 17.6 SW 13 19 1004.0 - 3.2 - Partly cloudy 10 - - - -
26/08:30pm 17.7 SW 12 18 1003.9 - 3.0 - Partly cloudy 10 - - - -
26/08:00pm 17.4 SW 9 15 1003.9 - 3.0 Drizzle Partly cloudy 10 - - - -
26/07:30pm 17.1 SW 12 17 1003.9 - 3.0 - Partly cloudy 10 - - - -
26/07:00pm 17.8 SW 13 17 1003.5 - 3.0 - Partly cloudy 10 - - - -
26/06:30pm 17.6 SW 13 18 1003.2 - 3.0 - Partly cloudy 10 - - - -
26/06:00pm 17.6 SW 14 18 1002.9 - 3.0 - Partly cloudy 10 - - - -
26/05:30pm 17.9 SW 14 18 1002.8 - 3.0 - Partly cloudy 10 - - - -
26/05:00pm 17.8 WSW 13 18 1002.4 - 3.0 - Cloudy 10 - - - -
26/04:30pm 18.1 SW 13 18 1002.0 - 3.0 - Partly cloudy 10 - - - -
26/04:00pm 18.5 WSW 16 21 1001.7 - 3.0 - Partly cloudy 10 - - - -
26/03:51pm 18.3 SW 15 25 1001.5 - 3.0 - Partly cloudy 10 - - - -
26/03:45pm 18.3 SW 13 17 1001.4 - 2.8 - Partly cloudy 10 - - - -
26/03:30pm 18.5 SW 10 15 1001.3 - 2.8 - Partly cloudy 10 - - - -
26/03:00pm 17.8 SW 12 20 1001.4 - 2.8 - Mostly clear 10 - - - -
26/02:30pm 18.3 SW 16 21 1001.3 - 2.4 - Partly cloudy 10 - - - -
26/02:00pm 18.5 SW 16 25 1001.0 - 2.4 Showers Cloudy 10 - - - -
26/01:30pm 18.8 WSW 16 22 1001.2 - 2.4 - Mostly clear 10 - - - -
26/01:00pm 18.8 WSW 17 27 1001.3 - 2.4 - Partly cloudy 10 - - - -
26/12:32pm 18.8 WSW 17 29 1001.4 - 2.4 - Mostly clear 10 - - - -
26/12:30pm 18.8 W 17 25 1001.5 - 2.4 - Mostly clear 10 - - - -
26/12:00pm 17.2 WSW 18 26 1001.9 - 0.2 - Partly cloudy 10 - - - -
26/11:47am 17.8 WSW 21 31 1002.0 - 0.0 Showers Partly cloudy 10 - - - -
26/11:30am 18.8 W 20 29 1002.1 - 0.0 Showers Partly cloudy 10 - - - -
26/11:16am 18.2 W 15 26 1002.3 - 0.0 Showers Partly cloudy 10 - - - -
26/11:00am 18.9 W 17 24 1002.6 - 0.0 - Cloudy 10 - - - -
26/10:30am 19.0 W 16 22 1003.0 - 0.0 - Partly cloudy 10 - - - -
26/10:17am 19.6 W 16 26 1003.2 - 0.0 - Mostly clear 10 - - - -
26/10:00am 19.1 W 16 21 1003.4 - 0.0 - Mostly clear 10 - - - -
26/09:51am 19.3 W 16 26 1003.6 - 0.0 - Partly cloudy 10 - - - -
26/09:30am 19.0 WNW 15 22 1003.7 - 0.0 - Mostly clear 10 - - - -
26/09:00am 18.0 NW 9 16 1004.0 - 0.0 - Mostly clear 10 - - - -
26/08:30am 17.3 NNW 10 16 1004.2 - 0.0 - Mostly clear 10 - - - -
26/08:00am 16.8 NNW 9 19 1004.7 - 4.6 Rain Cloudy 10 - - - -
26/07:30am 16.3 N 11 17 1004.0 - 4.6 Rain Mostly clear 10 - - - -
26/07:00am 16.1 WNW 8 13 1005.1 - 4.0 - Mostly clear 10 - - - -
26/06:36am 16.3 WNW 9 16 1005.4 - 3.6 - Partly cloudy 10 - - - -
26/06:30am 16.3 WNW 10 17 1005.5 - 3.6 - Partly cloudy 10 - - - -
26/06:25am 16.1 WNW 10 16 1005.6 - 3.6 - Partly cloudy 9 - - - -
26/06:18am 16.5 WNW 12 21 1005.8 - 3.4 - Partly cloudy 7 - - - -
26/06:10am 16.5 W 16 26 1005.8 - 3.2 - Partly cloudy 4 - - - -
26/06:09am 16.4 W 17 26 1005.8 - 3.2 - Partly cloudy 4 - - - -
26/06:00am 16.9 W 17 28 1005.8 - 2.2 - Partly cloudy 6 - - - -
26/05:59am 17.0 W 17 28 1005.8 - 2.0 - Partly cloudy 7 - - - -
26/05:54am 17.6 W 15 25 1005.5 - 1.4 - Partly cloudy 10 - - - -
26/05:30am 17.8 WNW 9 15 1005.5 - 1.2 - Partly cloudy 10 - - - -
26/05:00am 17.0 NW 7 10 1005.4 - 1.2 Rain Partly cloudy 10 - - - -
26/04:30am 16.4 NW 10 20 1005.3 - 1.2 - Partly cloudy 8 - - - -
26/04:00am 17.5 WNW 8 14 1005.4 - 0.4 - Partly cloudy 10 - - - -
26/03:30am 18.0 WNW 10 16 1005.2 - 0.4 - Partly cloudy 10 - - - -
26/03:00am 17.9 WNW 8 13 1005.0 - 0.4 - Partly cloudy 10 - - - -
26/02:30am 17.8 WNW 8 15 1005.2 - 0.4 - Partly cloudy 10 - - - -
26/02:00am 17.9 WNW 9 16 1005.5 - 0.4 Showers Cloudy 10 - - - -
26/01:30am 18.1 W 10 15 1005.9 - 0.4 - Partly cloudy 10 - - - -
26/01:00am 18.0 W 9 14 1006.1 - 0.4 - Partly cloudy 10 - - - -
26/12:30am 18.0 W 9 13 1006.5 - 0.4 - Partly cloudy 10 - - - -
26/12:00am 18.0 W 7 10 1006.7 - 0.4 - Partly cloudy 10 - - - -
 
Date/Time
EST
Temp
°C
Wind Pressure Rain since
9am
mm
Weather Cloud Vis
km
Sea
Height
m
Swell
Dir  Spd
kts
Gust
kts
hPa Trend Height
m
Period
s
Dir
25/11:30pm 18.1 W 8 12 1007.2 - 0.4 - Partly cloudy 10 - - - -
25/11:00pm 18.2 W 10 15 1007.7 - 0.4 - Cloudy 10 - - - -
25/10:30pm 18.2 W 8 11 1007.7 - 0.4 - Partly cloudy 10 - - - -

Other Formats:

Comma delimited format used in spreadsheet applications
http://www.bom.gov.au/fwo/IDN60701/IDN60701.94996.axf

JavaScript Object Notation format (JSON) in row-major order
http://www.bom.gov.au/fwo/IDN60701/IDN60701.94996.json